createdAt,value
2022-10-19T00:03:10.118Z,14.45
2022-10-19T00:08:31.747Z,14.46
2022-10-19T00:13:55.149Z,14.48
2022-10-19T00:19:27.522Z,14.50
2022-10-19T00:24:49.176Z,14.48
2022-10-19T00:30:10.951Z,14.51
2022-10-19T00:35:32.332Z,14.52
2022-10-19T00:40:54.166Z,14.52
2022-10-19T00:46:15.989Z,14.55
2022-10-19T00:51:41.328Z,14.57
2022-10-19T00:57:04.066Z,14.54
2022-10-19T01:02:25.972Z,14.52
2022-10-19T01:07:48.901Z,14.53
2022-10-19T01:13:33.540Z,14.53
2022-10-19T01:19:08.757Z,14.52
2022-10-19T01:25:05.262Z,14.49
2022-10-19T01:30:36.928Z,14.48
2022-10-19T01:36:15.615Z,14.41
2022-10-19T01:41:51.798Z,14.38
2022-10-19T01:47:18.735Z,14.40
2022-10-19T01:52:41.070Z,14.37
2022-10-19T01:58:08.410Z,14.39
2022-10-19T02:03:31.851Z,14.37
2022-10-19T02:08:54.526Z,14.38
2022-10-19T02:14:18.721Z,14.35
2022-10-19T02:19:40.723Z,14.33
2022-10-19T02:25:02.881Z,14.36
2022-10-19T02:30:24.884Z,14.35
2022-10-19T02:35:48.117Z,14.36
2022-10-19T02:41:21.038Z,14.38
2022-10-19T02:46:45.768Z,14.34
2022-10-19T02:52:09.702Z,14.28
2022-10-19T02:57:32.813Z,14.25
2022-10-19T03:02:55.152Z,14.18
2022-10-19T03:08:16.582Z,14.08
2022-10-19T03:13:38.369Z,13.99
2022-10-19T03:19:00.141Z,13.96
2022-10-19T03:24:22.070Z,13.91
2022-10-19T03:29:43.895Z,13.88
2022-10-19T03:35:06.327Z,13.83
2022-10-19T03:40:28.072Z,13.76
2022-10-19T03:45:50.085Z,13.66
2022-10-19T03:51:13.926Z,13.55
2022-10-19T03:56:36.169Z,13.37
2022-10-19T04:01:57.782Z,13.19
2022-10-19T04:07:19.809Z,13.07
2022-10-19T04:12:41.386Z,12.98
2022-10-19T04:18:02.769Z,12.89
2022-10-19T04:23:26.322Z,12.88
2022-10-19T04:28:48.183Z,12.84
2022-10-19T04:34:10.231Z,12.78
2022-10-19T04:39:31.628Z,12.75
2022-10-19T04:44:53.117Z,12.72
2022-10-19T04:50:14.991Z,12.63
2022-10-19T04:55:41.552Z,12.53
2022-10-19T05:01:18.326Z,12.50
2022-10-19T05:06:40.198Z,12.46
2022-10-19T05:12:02.129Z,12.46
2022-10-19T05:17:24.061Z,12.47
2022-10-19T05:22:46.053Z,12.42
2022-10-19T05:28:07.585Z,12.34
2022-10-19T05:33:29.500Z,12.28
2022-10-19T05:38:52.869Z,12.27
2022-10-19T05:44:17.247Z,12.38
2022-10-19T05:49:39.148Z,12.49
2022-10-19T05:55:00.975Z,12.62
2022-10-19T06:00:22.428Z,12.72
2022-10-19T06:05:43.932Z,12.81
2022-10-19T06:11:11.382Z,12.97
2022-10-19T06:16:33.120Z,13.08
2022-10-19T06:21:55.024Z,13.14
2022-10-19T06:27:16.922Z,13.23
2022-10-19T06:32:38.633Z,13.28
2022-10-19T06:38:02.332Z,13.25
2022-10-19T06:43:24.047Z,13.19
2022-10-19T06:49:03.942Z,13.17
2022-10-19T06:54:26.083Z,13.13
2022-10-19T06:59:50.173Z,13.11
2022-10-19T07:05:14.758Z,13.00
2022-10-19T07:10:36.804Z,13.05
2022-10-19T07:16:01.084Z,13.11
2022-10-19T07:21:23.255Z,13.16
2022-10-19T07:26:47.541Z,13.18
2022-10-19T07:32:09.121Z,13.04
2022-10-19T07:37:31.073Z,12.94
2022-10-19T07:42:53.882Z,12.98
2022-10-19T07:48:15.400Z,12.88
2022-10-19T07:53:37.842Z,12.76
2022-10-19T07:59:00.339Z,12.78
2022-10-19T08:10:04.882Z,12.84
2022-10-19T08:15:26.636Z,12.97
2022-10-19T08:20:48.562Z,13.17
2022-10-19T08:26:10.121Z,13.22
2022-10-19T08:31:32.220Z,13.10
2022-10-19T08:36:53.538Z,13.04
2022-10-19T08:42:19.836Z,12.98
2022-10-19T08:47:59.140Z,12.88
2022-10-19T08:53:40.286Z,12.79
2022-10-19T08:59:10.283Z,12.77
2022-10-19T09:04:44.425Z,12.89
2022-10-19T09:10:15.930Z,13.14
2022-10-19T09:15:44.535Z,13.26
2022-10-19T09:21:14.076Z,13.28
2022-10-19T09:26:51.792Z,13.26
2022-10-19T09:34:36.339Z,13.27
2022-10-19T09:39:57.777Z,13.17
2022-10-19T09:45:24.522Z,13.06
2022-10-19T09:50:52.773Z,12.98
2022-10-19T09:56:19.926Z,12.91
2022-10-19T10:01:43.846Z,12.86
2022-10-19T10:07:05.913Z,12.76
2022-10-19T10:12:27.696Z,12.73
2022-10-19T10:17:49.965Z,12.71
2022-10-19T10:23:24.200Z,12.67
2022-10-19T10:28:50.270Z,12.70
2022-10-19T10:34:23.018Z,12.85
2022-10-19T10:39:59.232Z,12.96
2022-10-19T10:45:38.201Z,12.96
2022-10-19T10:51:01.179Z,12.93
2022-10-19T10:56:28.640Z,12.84
2022-10-19T11:02:04.516Z,12.70
2022-10-19T11:07:28.445Z,12.60
2022-10-19T11:13:04.826Z,12.67
2022-10-19T11:18:39.497Z,12.83
2022-10-19T11:24:16.588Z,13.01
2022-10-19T11:30:15.538Z,13.11
2022-10-19T11:35:54.529Z,13.20
2022-10-19T11:41:44.356Z,13.31
2022-10-19T11:47:36.959Z,13.37
2022-10-19T11:53:18.638Z,13.31
2022-10-19T11:58:52.263Z,13.24
2022-10-19T12:04:28.692Z,13.22
2022-10-19T12:10:34.750Z,13.29
2022-10-19T12:15:56.654Z,13.37
2022-10-19T12:21:36.849Z,13.43
2022-10-19T12:26:58.982Z,13.40
2022-10-19T12:32:21.913Z,13.29
2022-10-19T12:37:54.678Z,13.18
2022-10-19T12:43:49.423Z,13.16
2022-10-19T12:49:46.776Z,13.16
2022-10-19T12:55:15.696Z,13.16
2022-10-19T13:00:38.200Z,13.17
2022-10-19T13:06:13.392Z,13.21
2022-10-19T13:11:36.436Z,13.24
2022-10-19T13:17:02.122Z,13.19
2022-10-19T13:22:26.732Z,13.15
2022-10-19T13:27:52.998Z,13.17
2022-10-19T13:33:33.201Z,13.20
2022-10-19T13:39:00.742Z,13.20
2022-10-19T13:44:25.985Z,13.18
2022-10-19T13:49:56.541Z,13.15
2022-10-19T13:55:24.684Z,13.06
2022-10-19T14:00:58.701Z,12.99
2022-10-19T14:06:51.500Z,12.90
2022-10-19T14:12:28.482Z,12.82
2022-10-19T14:17:50.336Z,12.79
2022-10-19T14:23:19.469Z,12.76
2022-10-19T14:28:42.098Z,12.72
2022-10-19T14:34:05.136Z,12.66
2022-10-19T14:39:32.880Z,12.63
2022-10-19T14:45:01.245Z,12.68
2022-10-19T14:50:27.311Z,12.78
2022-10-19T14:55:51.418Z,12.81
2022-10-19T15:01:13.697Z,12.73
2022-10-19T15:06:42.841Z,12.60
2022-10-19T15:12:16.072Z,12.53
2022-10-19T15:17:50.468Z,12.41
2022-10-19T15:23:49.107Z,12.26
2022-10-19T15:29:23.984Z,12.07
2022-10-19T15:34:45.918Z,11.91
2022-10-19T15:40:30.010Z,11.81
2022-10-19T15:46:02.480Z,11.72
2022-10-19T15:51:27.223Z,11.71
2022-10-19T15:56:52.364Z,11.70
2022-10-19T16:02:14.650Z,11.68
2022-10-19T16:07:38.385Z,11.63
2022-10-19T16:13:00.324Z,11.59
2022-10-19T16:18:22.286Z,11.59
2022-10-19T16:23:44.757Z,11.59
2022-10-19T16:29:06.743Z,11.61
2022-10-19T16:34:28.713Z,11.62
2022-10-19T16:39:50.444Z,11.60
2022-10-19T16:45:12.218Z,11.64
2022-10-19T16:50:34.201Z,11.70
2022-10-19T16:56:04.118Z,11.76
2022-10-19T17:01:26.086Z,11.83
2022-10-19T17:06:48.126Z,11.86
2022-10-19T17:12:10.131Z,11.85
2022-10-19T17:17:31.644Z,11.83
2022-10-19T17:22:53.426Z,11.83
2022-10-19T17:28:15.303Z,11.82
2022-10-19T17:33:38.243Z,11.90
2022-10-19T17:39:03.840Z,11.98
2022-10-19T17:44:25.625Z,11.94
2022-10-19T17:49:47.502Z,11.91
2022-10-19T17:55:12.632Z,11.87
2022-10-19T18:00:34.824Z,11.77
2022-10-19T18:05:57.122Z,11.73
2022-10-19T18:11:21.549Z,11.72
2022-10-19T18:16:45.688Z,11.73
2022-10-19T18:22:07.307Z,11.78
2022-10-19T18:27:29.302Z,11.77
2022-10-19T18:32:51.107Z,11.75
2022-10-19T18:38:12.623Z,11.70
2022-10-19T18:43:34.044Z,11.68
2022-10-19T18:48:56.017Z,11.65
2022-10-19T18:54:18.030Z,11.59
2022-10-19T18:59:40.045Z,11.52
2022-10-19T19:05:02.200Z,11.47
2022-10-19T19:10:25.383Z,11.40
2022-10-19T19:15:59.309Z,11.30
2022-10-19T19:21:26.960Z,11.29
2022-10-19T19:26:51.766Z,11.25
2022-10-19T19:32:13.399Z,11.17
2022-10-19T19:37:36.014Z,11.09
2022-10-19T19:42:58.307Z,10.98
2022-10-19T19:48:20.000Z,10.89
2022-10-19T19:53:41.704Z,10.81
2022-10-19T19:59:03.885Z,10.79
2022-10-19T20:04:25.495Z,10.88
2022-10-19T20:09:47.226Z,10.94
2022-10-19T20:15:09.727Z,10.91
2022-10-19T20:20:31.543Z,10.83
2022-10-19T20:25:53.883Z,10.74
2022-10-19T20:31:15.495Z,10.69
2022-10-19T20:36:37.599Z,10.69
2022-10-19T20:41:59.758Z,10.54
2022-10-19T20:47:22.205Z,10.24
2022-10-19T20:52:43.981Z,9.99
2022-10-19T20:58:05.615Z,9.83
2022-10-19T21:03:27.414Z,9.81
2022-10-19T21:08:49.770Z,9.72
2022-10-19T21:14:28.225Z,9.64
2022-10-19T21:19:50.415Z,9.60
2022-10-19T21:25:11.764Z,9.52
2022-10-19T21:30:36.019Z,9.40
2022-10-19T21:36:01.346Z,9.32
2022-10-19T21:41:26.215Z,9.20
2022-10-19T21:46:49.040Z,9.12
2022-10-19T21:52:15.123Z,9.04
2022-10-19T21:57:37.890Z,8.93
2022-10-19T22:02:59.847Z,8.84
2022-10-19T22:08:21.551Z,8.80
2022-10-19T22:13:43.386Z,8.74
2022-10-19T22:19:05.870Z,8.65
2022-10-19T22:24:27.942Z,8.59
2022-10-19T22:29:51.368Z,8.48
2022-10-19T22:35:12.992Z,8.41
2022-10-19T22:40:35.134Z,8.38
2022-10-19T22:45:56.742Z,8.31
2022-10-19T22:51:18.790Z,8.21
2022-10-19T22:56:40.520Z,8.10
2022-10-19T23:02:02.473Z,7.96
2022-10-19T23:07:24.429Z,7.88
2022-10-19T23:12:52.933Z,7.86
2022-10-19T23:18:14.969Z,7.81
2022-10-19T23:23:37.418Z,7.77
2022-10-19T23:28:59.074Z,7.55
2022-10-19T23:34:20.542Z,7.40
2022-10-19T23:39:42.039Z,7.37
2022-10-19T23:45:03.403Z,7.31
2022-10-19T23:50:25.435Z,7.30
2022-10-19T23:55:47.132Z,7.32
